Time;durP1;ratioP1;P1;durP2;ratioP2;P2;SDS_P1;SDS_P2;PMS_P1;PMS_P2;Temp;Humidity;BMP_temperature;BMP_pressure;BME280_temperature;BME280_humidity;BME280_pressure;Samples;Min_cycle;Max_cycle;Signal;HPM_P1;HPM_P2
2023/03/11 00:00:06;;;;;;;0.10;0.10;;;;;;;2.92;58.42;100848.69;5060132;28;20026;-88
2023/03/11 00:02:32;;;;;;;0.20;0.20;;;;;;;2.90;57.95;100850.44;5043542;28;20381;-85
2023/03/11 00:04:58;;;;;;;0.20;0.20;;;;;;;2.88;58.55;100846.91;5029629;28;20129;-85
2023/03/11 00:07:24;;;;;;;0.30;0.30;;;;;;;2.87;58.19;100852.16;5029369;28;20037;-86
2023/03/11 00:09:50;;;;;;;0.20;0.20;;;;;;;2.85;58.74;100849.47;5028286;28;20033;-87
2023/03/11 00:12:16;;;;;;;0.20;0.20;;;;;;;2.82;58.35;100849.47;5025666;28;20062;-86
2023/03/11 00:14:42;;;;;;;0.20;0.20;;;;;;;2.84;58.72;100850.38;5031261;28;20037;-86
2023/03/11 00:17:08;;;;;;;0.20;0.20;;;;;;;2.83;58.73;100846.00;5022758;28;20029;-86
2023/03/11 00:19:35;;;;;;;0.10;0.10;;;;;;;2.84;58.71;100855.59;5033914;28;20084;-85
2023/03/11 00:22:02;;;;;;;0.13;0.13;;;;;;;2.85;59.13;100857.34;5027128;28;20428;-85
2023/03/11 00:24:28;;;;;;;0.20;0.20;;;;;;;2.87;59.50;100862.63;5026434;28;20079;-85
2023/03/11 00:26:54;;;;;;;0.20;0.20;;;;;;;2.89;59.17;100868.72;5024977;28;20059;-86
2023/03/11 00:29:20;;;;;;;0.20;0.20;;;;;;;2.92;59.32;100867.03;5028732;28;20394;-85
2023/03/11 00:31:46;;;;;;;0.20;0.20;;;;;;;2.99;59.76;100885.41;5032181;28;20030;-84
2023/03/11 00:34:12;;;;;;;0.20;0.20;;;;;;;3.00;59.39;100887.19;5028808;28;20374;-84
2023/03/11 00:36:38;;;;;;;0.20;0.20;;;;;;;3.03;59.81;100889.84;5030180;28;20029;-85
2023/03/11 00:39:05;;;;;;;0.20;0.20;;;;;;;3.05;59.35;100896.84;5024935;28;20060;-85
2023/03/11 00:41:32;;;;;;;0.20;0.20;;;;;;;3.07;59.02;100892.50;5026913;28;20025;-86
2023/03/11 00:43:58;;;;;;;0.10;0.10;;;;;;;3.09;58.81;100895.16;5027553;28;20025;-85
2023/03/11 00:46:25;;;;;;;0.13;0.13;;;;;;;3.08;58.63;100894.25;5026544;28;20037;-85
2023/03/11 00:48:51;;;;;;;0.20;0.20;;;;;;;3.09;59.29;100900.41;5028148;28;20524;-86
2023/03/11 00:51:17;;;;;;;0.20;0.20;;;;;;;3.07;58.74;100902.09;5027149;28;20064;-85
2023/03/11 00:53:44;;;;;;;0.10;0.10;;;;;;;3.09;58.45;100908.25;5026075;28;20508;-85
2023/03/11 00:56:12;;;;;;;0.20;0.20;;;;;;;3.12;58.82;100900.41;5027020;28;20595;-85
2023/03/11 00:58:40;;;;;;;0.20;0.20;;;;;;;3.15;58.97;100904.81;5025704;28;20396;-86
2023/03/11 01:01:08;;;;;;;0.10;0.10;;;;;;;3.15;58.71;100899.56;5028181;28;20033;-85
2023/03/11 01:03:36;;;;;;;0.28;0.28;;;;;;;3.17;58.59;100910.94;5027443;28;20577;-84
2023/03/11 01:06:02;;;;;;;0.17;0.17;;;;;;;3.14;58.26;100906.56;5026136;28;20053;-84
2023/03/11 01:08:30;;;;;;;0.20;0.20;;;;;;;3.19;58.35;100906.59;5026201;28;20101;-85
2023/03/11 01:10:57;;;;;;;0.10;0.10;;;;;;;3.21;58.68;100915.34;5031306;28;20026;-85
2023/03/11 01:13:25;;;;;;;0.20;0.20;;;;;;;3.22;58.93;100911.88;5028220;28;20029;-84
2023/03/11 01:15:51;;;;;;;0.20;0.20;;;;;;;3.24;59.29;100910.16;5046592;28;20029;-84
2023/03/11 01:18:19;;;;;;;0.20;0.20;;;;;;;3.24;58.91;100918.88;5047497;28;20033;-86
2023/03/11 01:20:46;;;;;;;0.20;0.20;;;;;;;3.24;58.84;100921.50;5053961;28;20018;-88
2023/03/11 01:23:14;;;;;;;0.20;0.20;;;;;;;3.22;58.98;100919.72;5049043;28;20042;-86
2023/03/11 01:25:40;;;;;;;0.25;0.25;;;;;;;3.20;59.40;100919.72;5045342;28;20053;-84
2023/03/11 01:28:07;;;;;;;0.20;0.20;;;;;;;3.13;58.00;100924.84;5051337;28;20026;-86
2023/03/11 01:30:35;;;;;;;0.20;0.20;;;;;;;3.10;58.36;100915.22;5047801;28;20037;-85
2023/03/11 01:33:03;;;;;;;0.20;0.20;;;;;;;3.03;57.55;100926.50;5041861;28;20055;-85
2023/03/11 01:35:30;;;;;;;0.20;0.20;;;;;;;2.98;58.24;100929.06;5040788;28;20104;-85
2023/03/11 01:37:57;;;;;;;0.20;0.20;;;;;;;2.95;58.96;100934.22;5040433;28;20492;-85
2023/03/11 01:48:59;;;;;;;0.10;0.10;;;;;;;2.85;58.38;100928.00;5165345;27;20133;-81
2023/03/11 01:51:36;;;;;;;0.30;0.30;;;;;;;2.90;59.06;100926.34;5168701;27;20029;-81
2023/03/11 01:54:10;;;;;;;0.20;0.20;;;;;;;2.94;58.57;100935.13;5161512;27;20394;-82
2023/03/11 01:56:37;;;;;;;0.20;0.20;;;;;;;2.93;57.58;100941.19;5165308;27;20034;-82
2023/03/11 01:59:05;;;;;;;0.20;0.20;;;;;;;2.96;58.80;100935.13;5168072;27;20032;-81
2023/03/11 02:01:31;;;;;;;0.15;0.15;;;;;;;2.98;57.34;100931.66;5166827;27;20475;-81
2023/03/11 02:03:58;;;;;;;0.20;0.20;;;;;;;3.03;57.05;100932.59;5166296;27;20030;-81
2023/03/11 02:06:25;;;;;;;0.10;0.10;;;;;;;3.06;55.73;100931.75;5166900;27;20030;-82
2023/03/11 02:08:51;;;;;;;0.20;0.20;;;;;;;3.12;57.63;100937.06;5163404;27;20421;-82
2023/03/11 02:11:23;;;;;;;0.20;0.20;;;;;;;3.18;56.62;100941.50;5165582;27;21161;-82
2023/03/11 02:13:53;;;;;;;0.20;0.20;;;;;;;3.17;56.70;100939.75;5164657;27;20030;-81
2023/03/11 02:16:20;;;;;;;0.10;0.10;;;;;;;3.15;56.01;100941.47;5161969;27;20072;-81
2023/03/11 02:18:46;;;;;;;0.20;0.20;;;;;;;3.11;55.82;100942.28;5167821;27;20050;-83
2023/03/11 02:21:22;;;;;;;0.20;0.20;;;;;;;3.13;55.32;100944.06;5165383;27;20373;-82
2023/03/11 02:24:28;;;;;;;0.20;0.20;;;;;;;3.16;55.44;100951.06;5165365;27;20368;-82
2023/03/11 02:27:08;;;;;;;0.20;0.20;;;;;;;3.13;56.14;100944.06;5164101;27;20023;-82
2023/03/11 02:29:34;;;;;;;0.20;0.20;;;;;;;3.03;56.59;100947.44;5164106;27;20026;-82
2023/03/11 02:32:05;;;;;;;0.20;0.20;;;;;;;2.98;57.20;100938.63;5166005;27;20026;-83
2023/03/11 02:34:34;;;;;;;0.20;0.20;;;;;;;2.94;57.39;100947.31;5163379;27;20464;-82
2023/03/11 02:37:03;;;;;;;0.20;0.20;;;;;;;2.89;57.53;100940.28;5163716;27;20034;-83
2023/03/11 02:39:49;;;;;;;0.15;0.15;;;;;;;2.92;57.26;100937.69;5161510;27;20430;-80
2023/03/11 02:42:23;;;;;;;0.20;0.20;;;;;;;2.84;57.58;100938.44;5162721;27;20034;-81
2023/03/11 02:45:10;;;;;;;0.20;0.20;;;;;;;2.87;57.97;100938.50;5162983;27;20038;-81
2023/03/11 02:47:39;;;;;;;0.20;0.20;;;;;;;2.73;57.53;100938.31;5161047;27;20011;-82
2023/03/11 02:50:08;;;;;;;0.20;0.20;;;;;;;2.72;58.47;100939.19;5163888;27;20030;-83
2023/03/11 02:52:34;;;;;;;0.20;0.20;;;;;;;2.66;58.49;100936.47;5160652;27;20031;-81
2023/03/11 02:55:01;;;;;;;0.20;0.20;;;;;;;2.63;58.57;100946.88;5168332;27;20030;-83
2023/03/11 02:57:27;;;;;;;0.15;0.15;;;;;;;2.58;58.86;100947.69;5169477;27;20090;-84
2023/03/11 02:59:53;;;;;;;0.20;0.20;;;;;;;2.52;59.13;100950.22;5157677;27;20034;-83
2023/03/11 03:02:19;;;;;;;0.20;0.20;;;;;;;2.46;59.41;100950.13;5155847;27;20033;-82
2023/03/11 03:04:45;;;;;;;0.20;0.20;;;;;;;2.41;59.71;100957.03;5155053;27;20295;-84
2023/03/11 03:07:11;;;;;;;0.20;0.20;;;;;;;2.38;59.31;100954.34;5157007;27;20491;-82
2023/03/11 03:09:37;;;;;;;0.17;0.17;;;;;;;2.35;59.75;100956.94;5154193;27;20066;-80
2023/03/11 03:12:04;;;;;;;0.10;0.10;;;;;;;2.30;59.64;100962.09;5154862;27;20055;-80
2023/03/11 03:14:30;;;;;;;0.20;0.20;;;;;;;2.24;59.74;100970.72;5154736;27;20073;-81
2023/03/11 03:16:57;;;;;;;0.20;0.20;;;;;;;2.18;60.13;100974.97;5152713;27;20014;-80
2023/03/11 03:19:23;;;;;;;0.20;0.20;;;;;;;2.14;60.36;100979.25;5155479;27;20067;-80
2023/03/11 03:21:49;;;;;;;0.20;0.20;;;;;;;2.07;60.64;100977.41;5154470;27;20075;-83
2023/03/11 03:24:15;;;;;;;0.10;0.10;;;;;;;2.01;60.82;100986.03;5163687;27;20026;-79
2023/03/11 03:26:41;;;;;;;0.20;0.20;;;;;;;1.94;61.09;100998.09;5155771;27;20116;-81
2023/03/11 03:29:07;;;;;;;0.17;0.17;;;;;;;1.87;61.55;100995.34;5150258;27;20034;-83
2023/03/11 03:31:33;;;;;;;0.20;0.20;;;;;;;1.81;61.50;100990.91;5155283;27;20376;-83
2023/03/11 03:33:59;;;;;;;0.20;0.20;;;;;;;1.77;61.60;100989.09;5154850;27;20026;-81
2023/03/11 03:36:25;;;;;;;0.20;0.20;;;;;;;1.73;61.96;101003.81;5144389;27;20029;-83
2023/03/11 03:38:55;;;;;;;0.20;0.20;;;;;;;1.69;62.63;101007.19;5142506;27;20045;-85
2023/03/11 03:41:24;;;;;;;0.20;0.20;;;;;;;1.64;62.69;101010.59;5141741;27;20053;-83
2023/03/11 03:43:52;;;;;;;0.20;0.20;;;;;;;1.64;62.44;101013.22;5143848;27;20400;-84
2023/03/11 03:46:18;;;;;;;0.20;0.20;;;;;;;1.60;62.39;101013.13;5141453;27;20414;-83
2023/03/11 03:48:44;;;;;;;0.10;0.10;;;;;;;1.59;62.44;101011.38;5141582;27;20015;-83
2023/03/11 03:51:13;;;;;;;0.20;0.20;;;;;;;1.59;62.79;101021.81;5140633;27;20046;-82
2023/03/11 03:53:39;;;;;;;0.20;0.20;;;;;;;1.55;63.05;101022.63;5149137;27;20656;-83
2023/03/11 03:56:08;;;;;;;0.20;0.20;;;;;;;1.55;63.03;101019.13;5144945;27;20026;-83
2023/03/11 03:58:34;;;;;;;0.20;0.20;;;;;;;1.53;63.06;101021.69;5147249;27;20030;-85
2023/03/11 04:01:01;;;;;;;0.20;0.20;;;;;;;1.54;63.00;101030.44;5140920;27;20037;-85
2023/03/11 04:03:28;;;;;;;0.20;0.20;;;;;;;1.51;63.14;101027.72;5146889;27;20593;-83
2023/03/11 04:06:03;;;;;;;0.20;0.20;;;;;;;1.49;63.03;101025.09;5145722;27;20027;-84
2023/03/11 04:08:29;;;;;;;0.20;0.20;;;;;;;1.52;62.99;101033.00;5145585;27;20023;-84
2023/03/11 04:10:56;;;;;;;0.20;0.20;;;;;;;1.52;62.63;101022.56;5148019;27;20035;-85
2023/03/11 04:13:23;;;;;;;0.20;0.20;;;;;;;1.54;62.89;101026.06;5144466;27;20494;-85
2023/03/11 04:15:49;;;;;;;0.20;0.20;;;;;;;1.52;62.80;101022.56;5137180;27;20035;-84
2023/03/11 04:18:15;;;;;;;0.20;0.20;;;;;;;1.53;62.75;101031.28;5144786;27;20396;-85
2023/03/11 04:20:41;;;;;;;0.20;0.20;;;;;;;1.51;62.86;101025.13;5156147;27;20025;-85
2023/03/11 04:23:07;;;;;;;0.20;0.20;;;;;;;1.51;62.95;101031.25;5166418;27;20027;-85
2023/03/11 04:25:33;;;;;;;0.20;0.20;;;;;;;1.47;63.08;101026.81;5147812;27;20085;-85
2023/03/11 04:27:59;;;;;;;0.20;0.20;;;;;;;1.43;63.13;101030.19;5151365;27;20034;-84
2023/03/11 04:30:26;;;;;;;0.20;0.20;;;;;;;1.41;63.25;101026.69;5153821;27;20027;-85
2023/03/11 04:32:52;;;;;;;0.20;0.20;;;;;;;1.38;63.53;101021.41;5152546;27;20023;-86
2023/03/11 04:35:18;;;;;;;0.20;0.20;;;;;;;1.36;63.54;101029.19;5150009;27;20083;-85
2023/03/11 04:37:44;;;;;;;0.30;0.30;;;;;;;1.33;63.57;101030.88;5142471;27;20030;-85
2023/03/11 04:40:11;;;;;;;0.20;0.20;;;;;;;1.26;63.69;101025.50;5145647;27;20041;-84
2023/03/11 04:42:37;;;;;;;0.10;0.10;;;;;;;1.21;63.38;101034.97;5145013;27;20031;-85
2023/03/11 04:45:05;;;;;;;0.20;0.20;;;;;;;1.17;63.61;101043.56;5138862;27;20518;-84
2023/03/11 04:47:31;;;;;;;0.20;0.20;;;;;;;1.15;63.87;101049.59;5141910;27;20035;-85
2023/03/11 04:49:57;;;;;;;0.20;0.20;;;;;;;1.10;63.57;101052.13;5153255;27;20072;-85
2023/03/11 04:52:23;;;;;;;0.20;0.20;;;;;;;1.07;63.92;101057.28;5147899;27;20106;-84
2023/03/11 04:54:49;;;;;;;0.20;0.20;;;;;;;1.03;63.96;101052.84;5154232;27;20035;-83
2023/03/11 04:57:15;;;;;;;0.20;0.20;;;;;;;1.01;64.44;101051.91;5143577;27;20022;-84
2023/03/11 04:59:41;;;;;;;0.20;0.20;;;;;;;0.98;64.61;101063.16;5156777;27;20022;-85
2023/03/11 05:02:07;;;;;;;0.13;0.13;;;;;;;0.95;64.28;101044.84;5147047;27;20105;-85
2023/03/11 05:04:33;;;;;;;0.20;0.20;;;;;;;0.91;64.78;101056.03;5152008;27;20549;-85
2023/03/11 05:07:00;;;;;;;0.20;0.20;;;;;;;0.87;64.64;101054.22;5153232;27;20019;-83
2023/03/11 05:09:26;;;;;;;0.20;0.20;;;;;;;0.85;64.81;101050.69;5145051;27;20039;-83
2023/03/11 05:11:52;;;;;;;0.20;0.20;;;;;;;0.82;64.63;101064.53;5145331;27;20031;-84
2023/03/11 05:14:18;;;;;;;0.20;0.20;;;;;;;0.79;65.28;101067.09;5145738;27;20029;-84
2023/03/11 05:16:44;;;;;;;0.20;0.20;;;;;;;0.78;64.62;101067.94;5145749;27;20046;-85
2023/03/11 05:19:41;;;;;;;0.20;0.20;;;;;;;0.74;64.36;101064.34;5141173;27;20408;-85
2023/03/11 05:21:56;;;;;;;0.20;0.20;;;;;;;0.72;64.89;101067.78;5144020;27;20132;-85
2023/03/11 05:24:24;;;;;;;0.17;0.17;;;;;;;0.70;64.38;101059.94;5150067;27;20019;-85
2023/03/11 05:26:51;;;;;;;0.30;0.30;;;;;;;0.67;64.90;101062.44;5152307;27;20076;-84
2023/03/11 05:29:17;;;;;;;0.20;0.20;;;;;;;0.61;65.14;101068.41;5146522;27;20044;-85
2023/03/11 05:31:44;;;;;;;0.20;0.20;;;;;;;0.59;64.97;101059.66;5154980;27;20027;-85
2023/03/11 05:34:10;;;;;;;0.15;0.15;;;;;;;0.58;64.97;101070.94;5162094;27;20019;-85
2023/03/11 05:36:36;;;;;;;0.10;0.10;;;;;;;0.56;65.31;101069.13;5171325;27;20031;-83
2023/03/11 05:39:02;;;;;;;0.17;0.17;;;;;;;0.54;65.33;101081.25;5151122;27;20437;-84
2023/03/11 05:41:29;;;;;;;0.30;0.30;;;;;;;0.48;65.04;101077.63;5151161;27;20026;-85
2023/03/11 05:43:55;;;;;;;0.20;0.20;;;;;;;0.48;65.66;101074.16;5145088;27;20087;-84
2023/03/11 05:46:21;;;;;;;0.20;0.20;;;;;;;0.45;65.29;101081.91;5150696;27;20058;-84
2023/03/11 05:48:47;;;;;;;0.20;0.20;;;;;;;0.42;65.51;101087.03;5155503;27;20023;-85
2023/03/11 05:51:13;;;;;;;0.20;0.20;;;;;;;0.41;65.74;101085.28;5143239;27;20075;-85
2023/03/11 05:53:47;;;;;;;0.20;0.20;;;;;;;0.40;65.73;101091.31;5153838;27;20054;-85
2023/03/11 05:56:14;;;;;;;0.20;0.20;;;;;;;0.39;65.70;101093.06;5148406;27;20025;-84
2023/03/11 05:58:41;;;;;;;0.20;0.20;;;;;;;0.38;65.57;101095.63;5149661;27;20023;-85
2023/03/11 06:01:09;;;;;;;0.20;0.20;;;;;;;0.39;65.87;101097.41;5146172;27;20062;-84
2023/03/11 06:03:39;;;;;;;0.20;0.20;;;;;;;0.39;65.92;101097.41;5151381;27;20090;-84
2023/03/11 06:06:07;;;;;;;0.20;0.20;;;;;;;0.35;66.43;101096.44;5153891;27;20023;-84
2023/03/11 06:08:34;;;;;;;0.20;0.20;;;;;;;0.35;66.12;101101.66;5148071;27;20502;-85
2023/03/11 06:11:03;;;;;;;0.20;0.20;;;;;;;0.35;66.51;101106.88;5155214;27;20038;-85
2023/03/11 06:13:29;;;;;;;0.20;0.20;;;;;;;0.31;66.74;101111.09;5150473;27;20113;-84
2023/03/11 06:15:56;;;;;;;0.20;0.20;;;;;;;0.32;66.34;101118.09;5148729;27;20025;-86
2023/03/11 06:18:22;;;;;;;0.20;0.20;;;;;;;0.31;66.52;101116.31;5138543;27;20034;-85
2023/03/11 06:20:52;;;;;;;0.20;0.20;;;;;;;0.32;66.38;101127.63;5149872;27;20031;-84
2023/03/11 06:23:21;;;;;;;0.20;0.20;;;;;;;0.36;65.95;101123.38;5145632;27;20086;-85
2023/03/11 06:25:55;;;;;;;0.15;0.15;;;;;;;0.40;66.24;101133.03;5149883;27;20076;-85
2023/03/11 06:28:22;;;;;;;0.20;0.20;;;;;;;0.36;66.19;101128.59;5145443;27;20011;-85
2023/03/11 06:30:48;;;;;;;0.10;0.10;;;;;;;0.35;65.94;101132.03;5155373;27;20023;-85
2023/03/11 06:33:14;;;;;;;0.20;0.20;;;;;;;0.35;66.82;101132.03;5152228;27;20030;-85
2023/03/11 06:35:40;;;;;;;0.10;0.10;;;;;;;0.36;66.28;101137.28;5153084;27;20037;-84
2023/03/11 06:38:07;;;;;;;0.10;0.10;;;;;;;0.38;66.11;101137.34;5156460;27;20015;-86
2023/03/11 06:40:37;;;;;;;0.20;0.20;;;;;;;0.39;66.79;101139.09;5151537;27;20031;-85
2023/03/11 06:43:03;;;;;;;0.20;0.20;;;;;;;0.40;66.54;101139.13;5152626;27;20027;-85
2023/03/11 06:45:29;;;;;;;0.10;0.10;;;;;;;0.42;66.73;101141.78;5160551;27;20052;-84
2023/03/11 06:47:55;;;;;;;0.20;0.20;;;;;;;0.45;66.65;101139.28;5165503;27;20043;-84
2023/03/11 06:50:22;;;;;;;0.25;0.25;;;;;;;0.47;66.78;101155.81;5166904;27;20080;-84
2023/03/11 06:52:49;;;;;;;0.73;0.73;;;;;;;0.48;66.60;101160.19;5131906;27;20536;-83
2023/03/11 06:55:17;;;;;;;0.20;0.20;;;;;;;0.52;66.45;101156.81;5156607;27;20018;-84
2023/03/11 06:57:44;;;;;;;0.20;0.20;;;;;;;0.56;66.77;101163.00;5148554;27;20026;-83
2023/03/11 07:00:11;;;;;;;0.28;0.28;;;;;;;0.59;66.57;101169.19;5149642;27;20050;-84
2023/03/11 07:02:37;;;;;;;0.20;0.20;;;;;;;0.60;66.58;101162.25;5149478;27;20019;-84
2023/03/11 07:05:03;;;;;;;0.20;0.20;;;;;;;0.64;66.82;101169.31;5150333;27;20053;-86
2023/03/11 07:07:30;;;;;;;0.20;0.20;;;;;;;0.69;66.62;101165.09;5158745;27;20026;-85
2023/03/11 07:09:57;;;;;;;0.20;0.20;;;;;;;0.71;66.85;101162.50;5156422;27;20499;-85
2023/03/11 07:12:24;;;;;;;0.20;0.20;;;;;;;0.75;67.05;101172.19;5158818;27;20034;-85
2023/03/11 07:14:55;;;;;;;0.17;0.17;;;;;;;0.80;66.79;101167.97;5155238;27;20067;-87
2023/03/11 07:17:24;;;;;;;0.20;0.20;;;;;;;0.85;66.69;101170.69;5157246;27;20060;-84
2023/03/11 07:19:50;;;;;;;0.20;0.20;;;;;;;0.91;66.68;101181.25;5170655;27;20027;-84
2023/03/11 07:22:17;;;;;;;0.30;0.30;;;;;;;0.98;66.39;101183.19;5163284;27;20125;-85
2023/03/11 07:24:47;;;;;;;0.10;0.10;;;;;;;1.06;66.75;101189.50;5174369;27;20030;-86
2023/03/11 07:27:14;;;;;;;0.20;0.20;;;;;;;1.08;66.54;101194.75;5164978;27;20110;-86
2023/03/11 07:29:40;;;;;;;0.20;0.20;;;;;;;1.15;66.88;101195.75;5160019;27;20019;-85
2023/03/11 07:32:09;;;;;;;0.20;0.20;;;;;;;1.23;66.77;101199.44;5160167;27;20030;-85
2023/03/11 07:34:35;;;;;;;0.20;0.20;;;;;;;1.32;66.78;101204.00;5158027;27;20062;-85
2023/03/11 07:37:05;;;;;;;0.20;0.20;;;;;;;1.41;66.36;101199.03;5152383;27;20522;-85
2023/03/11 07:39:31;;;;;;;0.20;0.20;;;;;;;1.51;66.41;101201.00;5146471;27;20046;-84
2023/03/11 07:41:57;;;;;;;0.20;0.20;;;;;;;1.59;66.32;101204.63;5157786;27;20023;-85
2023/03/11 07:44:23;;;;;;;0.20;0.20;;;;;;;1.68;66.41;101197.88;5146622;27;20114;-84
2023/03/11 07:46:49;;;;;;;0.20;0.20;;;;;;;1.74;65.99;101204.09;5158152;27;20138;-85
2023/03/11 07:49:15;;;;;;;0.20;0.20;;;;;;;1.82;66.01;101206.91;5144247;27;20034;-85
2023/03/11 07:51:42;;;;;;;0.20;0.20;;;;;;;1.88;65.81;101201.81;5160031;27;20022;-85
2023/03/11 07:54:10;;;;;;;0.10;0.10;;;;;;;2.01;65.59;101197.72;5161593;27;20026;-86
2023/03/11 07:56:37;;;;;;;0.30;0.30;;;;;;;2.10;65.53;101212.69;5154107;27;20050;-85
2023/03/11 07:59:04;;;;;;;0.22;0.22;;;;;;;2.18;64.84;101215.47;5142814;27;20083;-85
2023/03/11 08:01:35;;;;;;;0.20;0.20;;;;;;;2.30;65.14;101212.22;5145728;27;20027;-85
2023/03/11 08:04:04;;;;;;;0.20;0.20;;;;;;;2.40;63.99;101211.56;5154093;27;20034;-85
2023/03/11 08:06:32;;;;;;;0.20;0.20;;;;;;;2.52;63.59;101210.94;5157430;27;20050;-85
2023/03/11 08:09:00;;;;;;;0.68;0.57;;;;;;;2.62;63.97;101222.41;5145993;27;20071;-85
2023/03/11 08:11:27;;;;;;;0.10;0.10;;;;;;;2.67;63.82;101220.78;5152811;27;20038;-85
2023/03/11 08:13:53;;;;;;;0.20;0.20;;;;;;;2.71;63.74;101220.00;5144635;27;20027;-85
2023/03/11 08:16:20;;;;;;;0.10;0.10;;;;;;;2.77;62.91;101224.44;5153332;27;20042;-85
2023/03/11 08:18:48;;;;;;;0.20;0.20;;;;;;;2.85;63.33;101231.56;5143154;27;20031;-83
2023/03/11 08:21:18;;;;;;;0.13;0.13;;;;;;;2.90;63.43;101226.44;5155439;27;20042;-85
2023/03/11 08:23:45;;;;;;;0.17;0.17;;;;;;;2.95;62.52;101232.63;5156602;27;20019;-85
2023/03/11 08:26:14;;;;;;;0.20;0.20;;;;;;;3.11;63.02;101240.75;5152983;27;20115;-84
2023/03/11 08:28:41;;;;;;;0.20;0.20;;;;;;;3.17;62.82;101239.13;5162462;27;20051;-83
2023/03/11 08:31:25;;;;;;;0.30;0.30;;;;;;;3.38;62.92;101248.19;5160852;27;20492;-87
2023/03/11 08:33:54;;;;;;;0.13;0.13;;;;;;;3.41;62.56;101240.38;5164197;27;20034;-86
2023/03/11 08:36:20;;;;;;;0.20;0.20;;;;;;;3.50;62.62;101248.38;5163029;27;20026;-86
2023/03/11 08:38:47;;;;;;;0.20;0.20;;;;;;;3.56;61.67;101243.25;5166851;27;20028;-86
2023/03/11 08:41:14;;;;;;;0.43;0.43;;;;;;;3.67;61.71;101242.50;5159895;27;20058;-86
2023/03/11 08:43:41;;;;;;;0.20;0.20;;;;;;;3.78;62.13;101245.31;5156825;27;20133;-86
2023/03/11 08:46:08;;;;;;;0.10;0.10;;;;;;;3.88;61.65;101258.53;5156187;27;20026;-87
2023/03/11 08:48:36;;;;;;;0.20;0.20;;;;;;;3.99;60.29;101242.97;5162004;27;20022;-86
2023/03/11 08:51:07;;;;;;;0.20;0.20;;;;;;;4.09;60.49;101245.69;5159006;27;20826;-84
2023/03/11 08:53:33;;;;;;;0.20;0.20;;;;;;;4.18;61.17;101257.19;5154947;27;20022;-83
2023/03/11 08:56:00;;;;;;;0.20;0.20;;;;;;;4.26;59.11;101259.94;5153622;27;20027;-84
2023/03/11 08:58:26;;;;;;;0.15;0.15;;;;;;;4.40;59.33;101267.06;5152076;27;20031;-81
2023/03/11 09:00:52;;;;;;;0.20;0.20;;;;;;;4.45;55.30;101253.16;5150963;27;20069;-82
2023/03/11 09:03:18;;;;;;;0.20;0.20;;;;;;;4.56;56.83;101255.03;5149079;27;20048;-82
2023/03/11 09:05:44;;;;;;;0.20;0.20;;;;;;;4.69;58.04;101255.16;5159992;27;20026;-82
2023/03/11 09:08:10;;;;;;;0.20;0.20;;;;;;;4.80;57.83;101260.53;5151833;27;20515;-83
2023/03/11 09:10:37;;;;;;;0.20;0.20;;;;;;;4.90;57.44;101263.25;5150258;27;20027;-82
2023/03/11 09:13:03;;;;;;;0.20;0.20;;;;;;;5.02;56.08;101272.16;5144786;27;20080;-82
2023/03/11 09:15:29;;;;;;;0.10;0.10;;;;;;;5.12;57.76;101269.59;5150039;27;20511;-78
2023/03/11 09:17:55;;;;;;;0.10;0.10;;;;;;;5.19;53.66;101272.28;5143279;27;20027;-82
2023/03/11 09:20:21;;;;;;;0.10;0.10;;;;;;;5.30;55.99;101279.41;5149155;27;20041;-82
2023/03/11 09:22:48;;;;;;;0.10;0.10;;;;;;;5.30;54.26;101272.41;5148087;27;20465;-82
2023/03/11 09:25:14;;;;;;;0.13;0.13;;;;;;;5.36;53.57;101266.31;5135756;27;20027;-82
2023/03/11 09:27:40;;;;;;;0.10;0.10;;;;;;;5.39;52.89;101265.47;5139269;27;20050;-81
2023/03/11 09:30:08;;;;;;;0.20;0.20;;;;;;;5.46;54.26;101257.63;5142534;27;20037;-82
2023/03/11 09:32:34;;;;;;;0.10;0.10;;;;;;;5.50;53.72;101269.94;5150553;27;20018;-82
2023/03/11 09:35:00;;;;;;;0.20;0.20;;;;;;;5.58;53.71;101263.84;5138335;27;20062;-82
2023/03/11 09:37:28;;;;;;;0.10;0.10;;;;;;;5.61;52.98;101261.25;5142032;27;20023;-81
2023/03/11 09:39:54;;;;;;;0.10;0.10;;;;;;;5.70;53.13;101263.06;5140575;27;20034;-82
2023/03/11 09:42:36;;;;;;;0.10;0.10;;;;;;;5.90;55.48;101269.31;5148292;27;20102;-81
2023/03/11 09:45:09;;;;;;;0.10;0.10;;;;;;;6.01;54.38;101277.31;5139621;27;20071;-81
2023/03/11 09:47:46;;;;;;;0.10;0.10;;;;;;;6.19;54.41;101266.00;5139017;27;20019;-81
2023/03/11 09:50:52;;;;;;;0.10;0.10;;;;;;;6.38;53.21;101269.63;5146432;27;20019;-81
2023/03/11 09:56:05;;;;;;;0.20;0.20;;;;;;;6.64;50.97;101263.53;5096959;27;1232554;-82
2023/03/11 10:01:18;;;;;;;0.10;0.10;;;;;;;6.74;50.88;101275.00;5124567;27;20392;-81
2023/03/11 10:03:46;;;;;;;0.20;0.20;;;;;;;6.72;51.48;101276.75;5126164;28;20485;-82
2023/03/11 10:09:01;;;;;;;0.10;0.10;;;;;;;6.81;52.25;101276.78;5109447;27;1189203;-81
2023/03/11 10:11:56;;;;;;;0.13;0.13;;;;;;;6.87;52.09;101275.91;5133952;27;20346;-82
2023/03/11 10:17:45;;;;;;;0.20;0.20;;;;;;;7.03;50.95;101267.16;5106998;27;20381;-80
2023/03/11 10:23:14;;;;;;;0.10;0.10;;;;;;;7.10;51.33;101279.47;5062978;27;20411;-82
2023/03/11 10:28:21;;;;;;;0.20;0.20;;;;;;;7.28;51.80;101262.78;5096202;27;1173696;-80
2023/03/11 10:30:54;;;;;;;0.10;0.10;;;;;;;7.54;50.55;101261.00;5120691;27;20027;-82
2023/03/11 10:36:05;;;;;;;0.20;0.20;;;;;;;7.54;49.33;101263.66;5105312;27;20121;-83
2023/03/11 10:38:36;;;;;;;0.20;0.20;;;;;;;7.49;49.23;101270.69;5091538;28;20039;-83
2023/03/11 10:41:13;;;;;;;0.20;0.20;;;;;;;7.42;48.44;101268.06;5087002;28;20031;-84
2023/03/11 10:43:48;;;;;;;0.20;0.20;;;;;;;7.39;49.50;101264.53;5088133;28;20040;-83
2023/03/11 10:46:20;;;;;;;0.28;0.28;;;;;;;7.34;50.60;101267.19;5080430;28;20538;-84
2023/03/11 10:48:46;;;;;;;0.20;0.20;;;;;;;7.17;47.23;101274.22;5085469;28;20398;-83
2023/03/11 10:51:21;;;;;;;0.10;0.10;;;;;;;7.15;49.02;101279.47;5088604;28;20361;-84
2023/03/11 10:53:51;;;;;;;0.25;0.25;;;;;;;7.16;47.25;101272.44;5078517;28;20051;-83
2023/03/11 10:56:27;;;;;;;0.10;0.10;;;;;;;7.31;49.35;101282.13;5077709;28;20016;-83
2023/03/11 10:58:54;;;;;;;0.13;0.13;;;;;;;7.28;48.48;101288.28;5088751;28;20392;-82
2023/03/11 11:01:21;;;;;;;0.20;0.20;;;;;;;7.23;48.15;101284.75;5094795;28;20024;-82
2023/03/11 11:03:49;;;;;;;0.10;0.10;;;;;;;7.23;47.78;101282.13;5092140;28;20188;-80
2023/03/11 11:06:27;;;;;;;0.17;0.17;;;;;;;7.38;48.79;101283.91;5085868;28;20035;-82
2023/03/11 11:12:02;;;;;;;0.85;0.85;;;;;;;7.57;48.97;101290.91;5063638;28;20403;-81
2023/03/11 11:14:50;;;;;;;0.20;0.20;;;;;;;7.69;49.36;101287.41;5045912;28;20719;-81
2023/03/11 11:19:58;;;;;;;0.50;0.50;;;;;;;7.76;47.76;101291.78;5065318;28;20383;-81
2023/03/11 11:22:25;;;;;;;0.20;0.20;;;;;;;7.82;48.08;101292.66;5048774;28;20057;-81
2023/03/11 11:24:53;;;;;;;0.63;0.63;;;;;;;7.94;47.66;101295.28;5046270;28;20057;-81
2023/03/11 11:27:23;;;;;;;0.20;0.20;;;;;;;8.08;48.92;101293.47;5049823;28;20036;-83
2023/03/11 11:30:15;;;;;;;0.50;0.50;;;;;;;8.26;47.08;101291.66;5055988;28;20030;-82
2023/03/11 11:32:41;;;;;;;0.15;0.15;;;;;;;8.23;45.46;101291.69;5047136;28;20499;-83
2023/03/11 11:35:13;;;;;;;0.10;0.10;;;;;;;8.35;47.04;101280.19;5057141;28;20037;-82
2023/03/11 11:37:48;;;;;;;0.17;0.17;;;;;;;8.39;46.95;101279.31;5055395;28;20024;-81
2023/03/11 11:45:59;;;;;;;0.20;0.20;;;;;;;8.43;45.63;101273.97;5078888;28;20596;-80
2023/03/11 11:48:40;;;;;;;0.20;0.20;;;;;;;8.53;46.34;101274.00;5070721;28;20033;-83
2023/03/11 11:51:20;;;;;;;0.10;0.10;;;;;;;8.65;46.60;101273.03;5073774;28;20390;-82
2023/03/11 11:56:29;;;;;;;0.20;0.20;;;;;;;8.68;45.83;101273.03;5090343;27;20755;-83
2023/03/11 11:58:55;;;;;;;0.20;0.20;;;;;;;8.65;44.31;101271.28;5084503;28;20029;-81
2023/03/11 12:07:07;;;;;;;0.20;0.20;;;;;;;8.97;44.38;101264.97;5106756;27;20140;-82
2023/03/11 12:17:51;;;;;;;0.10;0.10;;;;;;;9.33;43.48;101257.66;5112246;27;20392;-80
2023/03/11 12:20:31;;;;;;;0.20;0.20;;;;;;;9.41;43.87;101259.31;5115955;28;20107;-83
2023/03/11 12:23:23;;;;;;;0.20;0.20;;;;;;;9.50;43.38;101267.19;5114906;28;20012;-81
2023/03/11 12:28:55;;;;;;;0.10;0.10;;;;;;;9.69;42.00;101265.25;5067132;28;20927;-81
2023/03/11 12:31:25;;;;;;;0.20;0.20;;;;;;;9.75;42.11;101262.53;5053627;28;20104;-81
2023/03/11 12:34:02;;;;;;;0.20;0.20;;;;;;;9.82;41.39;101261.59;5053437;28;20047;-82
2023/03/11 12:36:33;;;;;;;0.20;0.20;;;;;;;9.84;42.04;101261.56;5046286;28;20021;-82
2023/03/11 12:39:04;;;;;;;0.80;0.80;;;;;;;9.83;40.85;101265.09;5041117;28;20080;-82